KBXK

Buckeye Municipal Airport

Buckeye, Arizona, USA
METAR KBXK 231415Z AUTO 10004KT 10SM CLR 03/M05 A3011 RMK AO1
Observed Flight Rules
Feb-23 @ 14:15 UTC (15 minutes ago) Visual Flight Rules
Wind Visibility Clouds
100° at 4 knots 10 miles
  • Clear skies
Temperatures Readings
Current 3°C / 37°F
Dewpoint -5°C / 23°F
Humidity 56%
Altimeter 30.11" Hg
Pressure 1020 hPa
Elevation 315
METAR KBXK 231415Z AUTO 10004KT 10SM CLR 03/M05 A3011 RMK AO1
Observed Flight Rules
Feb-23 @ 14:15 UTC
(15 minutes ago)
VFR
Wind Visibility
100° at 4 knots 10 miles
Clouds
  • Clear skies
Temperature Dewpoint
3°C / 37°F -5°C / 23°F
Humidity Altimeter Pressure
56% 30.11" Hg 1020 hPa